Time;durP1;ratioP1;P1;durP2;ratioP2;P2;SDS_P1;SDS_P2;PMS_P1;PMS_P2;Temp;Humidity;BMP_temperature;BMP_pressure;BME280_temperature;BME280_humidity;BME280_pressure;Samples;Min_cycle;Max_cycle;Signal;HPM_P1;HPM_P2
2021/07/13 00:00:09;;;;;;;;;;;19.90;99.90;;;;;;5095663;28;19904;-81
2021/07/13 00:02:34;;;;;;;;;;;19.90;99.90;;;;;;5097910;28;19983;-81
2021/07/13 00:05:00;;;;;;;;;;;19.90;99.90;;;;;;5095570;28;19915;-81
2021/07/13 00:07:25;;;;;;;;;;;19.80;99.90;;;;;;5096998;28;19930;-81
2021/07/13 00:09:50;;;;;;;;;;;19.80;99.90;;;;;;5095104;28;19908;-82
2021/07/13 00:12:16;;;;;;;;;;;19.80;99.90;;;;;;5096838;28;24089;-80
2021/07/13 00:14:42;;;;;;;;;;;19.80;99.90;;;;;;5096445;28;19908;-81
2021/07/13 00:17:07;;;;;;;;;;;19.80;99.90;;;;;;5094127;28;19907;-80
2021/07/13 00:19:34;;;;;;;;;;;19.80;99.90;;;;;;5096503;28;19943;-80
2021/07/13 00:22:00;;;;;;;;;;;19.80;99.90;;;;;;5094177;28;19916;-81
2021/07/13 00:24:25;;;;;;;;;;;19.80;99.90;;;;;;5093620;28;19904;-79
2021/07/13 00:26:51;;;;;;;;;;;19.80;99.90;;;;;;5096544;28;19904;-80
2021/07/13 00:29:16;;;;;;;;;;;19.80;99.90;;;;;;5098139;28;19937;-80
2021/07/13 00:31:42;;;;;;;;;;;19.80;99.90;;;;;;5099804;28;19904;-79
2021/07/13 00:34:07;;;;;;;;;;;19.80;99.90;;;;;;5098396;28;20462;-81
2021/07/13 00:36:32;;;;;;;;;;;19.80;99.90;;;;;;5097006;28;19904;-81
2021/07/13 00:38:58;;;;;;;;;;;19.70;99.90;;;;;;5095831;28;19904;-81
2021/07/13 00:41:23;;;;;;;;;;;19.70;99.90;;;;;;5095482;28;20423;-81
2021/07/13 00:43:49;;;;;;;;;;;19.70;99.90;;;;;;5094949;28;24115;-79
2021/07/13 00:46:15;;;;;;;;;;;19.70;99.90;;;;;;5095047;28;20353;-81
2021/07/13 00:48:40;;;;;;;;;;;19.70;99.90;;;;;;5095296;28;24147;-79
2021/07/13 00:51:06;;;;;;;;;;;19.70;99.90;;;;;;5097182;28;19904;-81
2021/07/13 00:53:31;;;;;;;;;;;19.70;99.90;;;;;;5095603;28;20397;-81
2021/07/13 00:55:57;;;;;;;;;;;19.60;99.90;;;;;;5096846;28;24073;-80
2021/07/13 00:58:23;;;;;;;;;;;19.60;99.90;;;;;;5096699;28;19904;-80
2021/07/13 01:00:48;;;;;;;;;;;19.60;99.90;;;;;;5095844;28;24067;-80
2021/07/13 01:03:14;;;;;;;;;;;19.60;99.90;;;;;;5095911;28;19904;-81
2021/07/13 01:05:41;;;;;;;;;;;19.60;99.90;;;;;;5097628;28;19915;-81
2021/07/13 01:08:07;;;;;;;;;;;19.60;99.90;;;;;;5095280;28;19976;-81
2021/07/13 01:10:51;;;;;;;;;;;19.60;99.90;;;;;;5095124;28;20320;-80
2021/07/13 01:13:29;;;;;;;;;;;19.60;99.90;;;;;;5096173;28;19915;-80
2021/07/13 01:16:14;;;;;;;;;;;19.60;99.90;;;;;;5095502;28;19904;-80
2021/07/13 01:18:46;;;;;;;;;;;19.60;99.90;;;;;;5094702;28;19911;-79
2021/07/13 01:21:32;;;;;;;;;;;19.60;99.90;;;;;;5096575;28;24067;-81
2021/07/13 01:24:03;;;;;;;;;;;19.60;99.90;;;;;;5095358;28;19911;-81
2021/07/13 01:26:39;;;;;;;;;;;19.50;99.90;;;;;;5096763;28;20196;-80
2021/07/13 01:29:10;;;;;;;;;;;19.50;99.90;;;;;;5099314;28;19937;-81
2021/07/13 01:31:37;;;;;;;;;;;19.50;99.90;;;;;;5098915;28;20354;-79
2021/07/13 01:34:05;;;;;;;;;;;19.50;99.90;;;;;;5099614;28;19904;-80
2021/07/13 01:36:32;;;;;;;;;;;19.50;99.90;;;;;;5100703;28;20317;-80
2021/07/13 01:38:58;;;;;;;;;;;19.60;99.90;;;;;;5099988;28;20207;-80
2021/07/13 01:41:24;;;;;;;;;;;19.60;99.90;;;;;;5100077;28;20434;-80
2021/07/13 01:43:50;;;;;;;;;;;19.70;99.90;;;;;;5099924;28;20286;-79
2021/07/13 01:46:16;;;;;;;;;;;19.60;99.90;;;;;;5098996;28;19920;-79
2021/07/13 01:48:42;;;;;;;;;;;19.60;99.90;;;;;;5099769;28;19938;-81
2021/07/13 01:51:08;;;;;;;;;;;19.60;99.90;;;;;;5101446;28;20382;-79
2021/07/13 01:53:35;;;;;;;8.77;6.32;;;19.60;99.90;;;;;;5100487;28;19904;-80
2021/07/13 01:56:02;;;;;;;9.23;6.25;;;19.70;99.90;;;;;;5099819;28;20027;-80
2021/07/13 01:58:31;;;;;;;9.02;6.05;;;19.60;99.90;;;;;;5099878;28;20081;-79
2021/07/13 02:01:04;;;;;;;10.43;6.63;;;19.60;99.90;;;;;;5099830;28;20490;-79
2021/07/13 02:03:31;;;;;;;8.68;6.60;;;19.70;99.90;;;;;;5099718;28;20028;-80
2021/07/13 02:05:58;;;;;;;9.55;7.63;;;19.70;99.90;;;;;;5099734;28;20445;-80
2021/07/13 02:08:25;;;;;;;10.25;6.70;;;19.70;99.90;;;;;;5099605;28;20032;-81
2021/07/13 02:10:51;;;;;;;13.88;7.28;;;19.60;99.90;;;;;;5099349;28;20392;-81
2021/07/13 02:13:18;;;;;;;10.25;7.50;;;19.60;99.90;;;;;;5098944;28;20528;-82
2021/07/13 02:15:44;;;;;;;;;;;19.70;99.90;;;;;;5098959;28;20063;-80
2021/07/13 02:18:10;;;;;;;;;;;19.70;99.90;;;;;;5098663;28;19904;-81
2021/07/13 02:20:36;;;;;;;;;;;19.70;99.90;;;;;;5098938;28;19908;-80
2021/07/13 02:23:02;;;;;;;10.43;7.32;;;19.70;99.90;;;;;;5097885;28;20355;-82
2021/07/13 02:25:28;;;;;;;10.65;8.82;;;19.70;99.90;;;;;;5100213;28;20031;-80
2021/07/13 02:28:09;;;;;;;;;;;19.70;99.90;;;;;;5098956;28;19904;-80
2021/07/13 02:30:36;;;;;;;;;;;19.70;99.90;;;;;;5097640;28;19946;-79
2021/07/13 02:33:14;;;;;;;;;;;19.70;99.90;;;;;;5097258;28;19904;-79
2021/07/13 02:35:41;;;;;;;;;;;19.70;99.90;;;;;;5097405;28;25048;-79
2021/07/13 02:38:08;;;;;;;;;;;19.70;99.90;;;;;;5098156;28;19904;-81
2021/07/13 02:40:34;;;;;;;;;;;19.70;99.90;;;;;;5096911;28;19904;-79
2021/07/13 02:43:00;;;;;;;;;;;19.70;99.90;;;;;;5098763;28;24070;-80
2021/07/13 02:45:25;;;;;;;;;;;19.80;99.90;;;;;;5097892;28;19955;-81
2021/07/13 02:47:51;;;;;;;;;;;19.70;99.90;;;;;;5097473;28;19923;-81
2021/07/13 02:50:17;;;;;;;;;;;19.80;99.90;;;;;;5097918;28;19904;-82
2021/07/13 02:52:43;;;;;;;;;;;19.80;99.90;;;;;;5098370;28;19904;-78
2021/07/13 02:55:10;;;;;;;;;;;19.70;99.90;;;;;;5096948;28;19904;-79
2021/07/13 02:57:37;;;;;;;;;;;19.60;99.90;;;;;;5097519;28;19904;-82
2021/07/13 03:00:04;;;;;;;;;;;19.60;99.90;;;;;;5097407;28;24062;-80
2021/07/13 03:02:30;;;;;;;;;;;19.60;99.90;;;;;;5096787;28;19904;-79
2021/07/13 03:04:57;;;;;;;;;;;19.60;99.90;;;;;;5097311;28;19927;-81
2021/07/13 03:07:22;;;;;;;;;;;19.60;99.90;;;;;;5097472;28;24120;-80
2021/07/13 03:09:48;;;;;;;;;;;19.60;99.90;;;;;;5097050;28;25084;-80
2021/07/13 03:12:14;;;;;;;;;;;19.70;99.90;;;;;;5095904;28;24101;-81
2021/07/13 03:14:41;;;;;;;;;;;19.60;99.90;;;;;;5097751;28;19908;-81
2021/07/13 03:17:10;;;;;;;;;;;19.50;99.90;;;;;;5098183;28;19972;-80
2021/07/13 03:19:36;;;;;;;;;;;19.50;99.90;;;;;;5099805;28;19911;-81
2021/07/13 03:22:02;;;;;;;;;;;19.50;99.90;;;;;;5098100;28;24133;-81
2021/07/13 03:24:27;;;;;;;;;;;19.50;99.90;;;;;;5098670;28;19904;-80
2021/07/13 03:26:54;;;;;;;;;;;19.50;99.90;;;;;;5097549;28;24057;-80
2021/07/13 03:29:20;;;;;;;;;;;19.60;99.90;;;;;;5098230;28;20162;-80
2021/07/13 03:31:46;;;;;;;;;;;19.60;99.90;;;;;;5099069;28;24080;-81
2021/07/13 03:34:12;;;;;;;;;;;19.50;99.90;;;;;;5098642;28;20384;-81
2021/07/13 03:36:38;;;;;;;;;;;19.50;99.90;;;;;;5100316;28;19911;-81
2021/07/13 03:39:04;;;;;;;;;;;19.50;99.90;;;;;;5098551;28;19904;-81
2021/07/13 03:41:30;;;;;;;;;;;19.50;99.90;;;;;;5098868;28;24062;-81
2021/07/13 03:43:56;;;;;;;;;;;19.50;99.90;;;;;;5099126;28;19911;-81
2021/07/13 03:46:22;;;;;;;;;;;19.40;99.90;;;;;;5098752;28;19916;-81
2021/07/13 03:48:47;;;;;;;;;;;19.40;99.90;;;;;;5098192;28;19908;-81
2021/07/13 03:51:20;;;;;;;;;;;19.40;99.90;;;;;;5097780;28;19904;-80
2021/07/13 03:53:45;;;;;;;;;;;19.40;99.90;;;;;;5098789;28;19908;-81
2021/07/13 03:56:10;;;;;;;;;;;19.40;99.90;;;;;;5099170;28;19998;-81
2021/07/13 03:58:36;;;;;;;;;;;19.40;99.90;;;;;;5098267;28;19904;-81
2021/07/13 04:01:01;;;;;;;;;;;19.40;99.90;;;;;;5098070;28;19908;-81
2021/07/13 04:03:27;;;;;;;;;;;19.40;99.90;;;;;;5098828;28;19958;-82
2021/07/13 04:05:52;;;;;;;;;;;19.40;99.90;;;;;;5098980;28;19904;-81
2021/07/13 04:08:18;;;;;;;;;;;19.40;99.90;;;;;;5096808;28;20389;-79
2021/07/13 04:10:43;;;;;;;;;;;19.40;99.90;;;;;;5097689;28;19951;-81
2021/07/13 04:13:09;;;;;;;;;;;19.40;99.90;;;;;;5096576;28;20430;-80
2021/07/13 04:15:34;;;;;;;;;;;19.40;99.90;;;;;;5097096;28;19908;-81
2021/07/13 04:18:00;;;;;;;;;;;19.30;99.90;;;;;;5096968;28;19904;-82
2021/07/13 04:20:25;;;;;;;;;;;19.40;99.90;;;;;;5098315;28;19908;-79
2021/07/13 04:22:51;;;;;;;;;;;19.30;99.90;;;;;;5096306;28;19908;-80
2021/07/13 04:25:16;;;;;;;;;;;19.30;99.90;;;;;;5097326;28;19996;-80
2021/07/13 04:27:42;;;;;;;;;;;19.30;99.90;;;;;;5097221;28;19908;-78
2021/07/13 04:30:08;;;;;;;;;;;19.30;99.90;;;;;;5096901;28;19915;-78
2021/07/13 04:32:34;;;;;;;;;;;19.30;99.90;;;;;;5096911;28;20525;-82
2021/07/13 04:34:59;;;;;;;;;;;19.40;99.90;;;;;;5097076;28;19978;-80
2021/07/13 04:37:25;;;;;;;;;;;19.40;99.90;;;;;;5097839;28;20412;-79
2021/07/13 04:39:50;;;;;;;;;;;19.50;99.90;;;;;;5097003;28;19904;-80
2021/07/13 04:42:16;;;;;;;;;;;19.50;99.90;;;;;;5096520;28;19911;-81
2021/07/13 04:44:41;;;;;;;;;;;19.50;99.90;;;;;;5096293;28;24133;-81
2021/07/13 04:47:07;;;;;;;;;;;19.60;99.90;;;;;;5094504;28;19916;-81
2021/07/13 04:49:32;;;;;;;;;;;19.50;99.90;;;;;;5096036;28;19915;-80
2021/07/13 04:52:01;;;;;;;;;;;19.50;99.90;;;;;;5095823;28;20349;-81
2021/07/13 04:54:31;;;;;;;;;;;19.50;99.90;;;;;;5095126;28;19904;-78
2021/07/13 04:56:57;;;;;;;;;;;19.60;99.90;;;;;;5096390;28;19942;-81
2021/07/13 04:59:23;;;;;;;;;;;19.60;99.90;;;;;;5094347;28;19908;-80
2021/07/13 05:01:48;;;;;;;;;;;19.60;99.90;;;;;;5093933;28;24062;-79
2021/07/13 05:04:13;;;;;;;;;;;19.60;99.90;;;;;;5096013;28;19904;-80
2021/07/13 05:06:39;;;;;;;;;;;19.70;99.90;;;;;;5095150;28;19904;-81
2021/07/13 05:09:04;;;;;;;;;;;19.60;99.90;;;;;;5096065;28;19952;-80
2021/07/13 05:11:30;;;;;;;;;;;19.70;99.90;;;;;;5096087;28;20385;-82
2021/07/13 05:13:55;;;;;;;;;;;19.60;99.90;;;;;;5095121;28;19944;-81
2021/07/13 05:16:21;;;;;;;;;;;19.70;99.90;;;;;;5094816;28;20339;-81
2021/07/13 05:18:47;;;;;;;;;;;19.70;99.90;;;;;;5094540;28;20029;-80
2021/07/13 05:21:13;;;;;;;;;;;19.70;99.90;;;;;;5077587;28;19916;-80
2021/07/13 05:23:39;;;;;;;;;;;19.70;99.90;;;;;;5074101;28;19904;-82
2021/07/13 05:26:04;;;;;;;;;;;19.70;99.90;;;;;;5074039;28;20286;-80
2021/07/13 05:28:30;;;;;;;;;;;19.70;99.90;;;;;;5074086;28;19978;-81
2021/07/13 05:30:55;;;;;;;;;;;19.60;99.90;;;;;;5074220;28;19905;-80
2021/07/13 05:33:21;;;;;;;;;;;19.60;99.90;;;;;;5074539;28;19905;-80
2021/07/13 05:35:46;;;;;;;;;;;19.60;99.90;;;;;;5073985;28;19999;-82
2021/07/13 05:38:12;;;;;;;;;;;19.60;99.90;;;;;;5074357;28;19916;-78
2021/07/13 05:40:38;;;;;;;;;;;19.60;99.90;;;;;;5075331;28;19908;-80
2021/07/13 05:43:03;;;;;;;;;;;19.60;99.90;;;;;;5074343;28;19912;-81
2021/07/13 05:45:29;;;;;;;;;;;19.60;99.90;;;;;;5074410;28;19908;-82
2021/07/13 05:47:54;;;;;;;;;;;19.60;99.90;;;;;;5073307;28;19905;-81
2021/07/13 05:50:20;;;;;;;;;;;19.60;99.90;;;;;;5074177;28;19912;-80
2021/07/13 05:52:45;;;;;;;;;;;19.60;99.90;;;;;;5073627;28;19911;-82
2021/07/13 05:55:11;;;;;;;;;;;19.50;99.90;;;;;;5073498;28;19950;-80
2021/07/13 05:57:36;;;;;;;;;;;19.60;99.90;;;;;;5073809;28;19905;-79
2021/07/13 06:00:03;;;;;;;;;;;19.70;99.90;;;;;;5074339;28;19951;-82
2021/07/13 06:02:29;;;;;;;;;;;19.70;99.90;;;;;;5074030;28;19911;-80
2021/07/13 06:04:54;;;;;;;;;;;19.70;99.90;;;;;;5073676;28;19908;-80
2021/07/13 06:07:20;;;;;;;;;;;19.70;99.90;;;;;;5084819;28;19912;-80
2021/07/13 06:09:45;;;;;;;;;;;19.70;99.90;;;;;;5095971;28;19915;-80
2021/07/13 06:12:11;;;;;;;;;;;19.80;99.90;;;;;;5087191;28;19958;-80
2021/07/13 06:14:37;;;;;;;;;;;19.90;99.90;;;;;;5079482;28;19958;-82
2021/07/13 06:17:03;;;;;;;;;;;20.00;99.90;;;;;;5081647;28;19954;-80
2021/07/13 06:19:29;;;;;;;;;;;19.90;99.90;;;;;;5080521;28;19904;-82
2021/07/13 06:21:54;;;;;;;;;;;19.90;99.90;;;;;;5079047;28;20278;-82
2021/07/13 06:24:19;;;;;;;;;;;20.10;99.90;;;;;;5088216;28;19927;-82
2021/07/13 06:26:45;;;;;;;;;;;20.10;99.90;;;;;;5100296;28;19950;-79
2021/07/13 06:29:10;;;;;;;;;;;20.20;99.90;;;;;;5100758;28;20396;-82
2021/07/13 06:31:36;;;;;;;;;;;20.00;99.90;;;;;;5100235;28;19910;-82
2021/07/13 06:34:01;;;;;;;;;;;20.10;99.90;;;;;;5099231;28;20398;-82
2021/07/13 06:36:27;;;;;;;;;;;19.90;99.90;;;;;;5100600;28;19908;-81
2021/07/13 06:38:53;;;;;;;;;;;20.00;99.90;;;;;;5098703;28;19908;-81
2021/07/13 06:41:18;;;;;;;;;;;20.10;99.90;;;;;;5100116;28;19904;-82
2021/07/13 06:43:44;;;;;;;;;;;20.00;99.90;;;;;;5100301;28;19914;-82
2021/07/13 06:46:09;;;;;;;;;;;20.10;99.90;;;;;;5098560;28;19962;-81
2021/07/13 06:48:35;;;;;;;;;;;20.10;99.90;;;;;;5098158;28;19941;-81
2021/07/13 06:51:00;;;;;;;;;;;20.10;99.90;;;;;;5099200;28;19904;-80
2021/07/13 06:53:26;;;;;;;;;;;20.10;99.90;;;;;;5099558;28;20374;-81
2021/07/13 06:55:51;;;;;;;;;;;20.00;99.90;;;;;;5098554;28;19964;-81
2021/07/13 06:58:17;;;;;;;;;;;20.00;99.90;;;;;;5097712;28;19943;-81
2021/07/13 07:00:42;;;;;;;;;;;20.00;99.90;;;;;;5088999;28;20002;-80
2021/07/13 07:03:08;;;;;;;;;;;20.00;99.90;;;;;;5078529;28;19905;-82
2021/07/13 07:05:35;;;;;;;;;;;20.00;99.90;;;;;;5077094;28;19904;-82
2021/07/13 07:08:01;;;;;;;;;;;20.00;99.90;;;;;;5076760;28;20356;-79
2021/07/13 07:10:26;;;;;;;;;;;19.90;99.90;;;;;;5078302;28;19905;-79
2021/07/13 07:12:52;;;;;;;;;;;19.80;99.90;;;;;;5077813;28;19908;-82
2021/07/13 07:15:18;;;;;;;;;;;19.80;99.90;;;;;;5077193;28;19911;-82
2021/07/13 07:17:44;;;;;;;;;;;19.80;99.90;;;;;;5079322;28;19926;-82
2021/07/13 07:20:10;;;;;;;;;;;19.70;99.90;;;;;;5077426;28;19912;-82
2021/07/13 07:22:37;;;;;;;;;;;19.70;99.90;;;;;;5078363;28;20311;-82
2021/07/13 07:25:02;;;;;;;;;;;19.60;99.90;;;;;;5083528;28;19915;-81
2021/07/13 07:27:28;;;;;;;;;;;19.60;99.90;;;;;;5095593;28;19904;-81
2021/07/13 07:29:53;;;;;;;;;;;19.60;99.90;;;;;;5096059;28;19908;-81
2021/07/13 07:32:19;;;;;;;;;;;19.60;99.90;;;;;;5096947;28;19908;-81
2021/07/13 07:34:44;;;;;;;;;;;19.60;99.90;;;;;;5097859;28;19981;-80
2021/07/13 07:37:10;;;;;;;;;;;19.50;99.90;;;;;;5098321;28;19904;-80
2021/07/13 07:39:37;;;;;;;;;;;19.50;99.90;;;;;;5097234;28;19910;-81
2021/07/13 07:42:03;;;;;;;;;;;19.50;99.90;;;;;;5097059;28;20339;-80
2021/07/13 07:44:28;;;;;;;;;;;19.50;99.90;;;;;;5097831;28;19947;-81
2021/07/13 07:46:54;;;;;;;;;;;19.40;99.90;;;;;;5097506;28;19912;-80
2021/07/13 07:49:19;;;;;;;;;;;19.30;99.90;;;;;;5096652;28;19973;-80
2021/07/13 07:51:45;;;;;;;;;;;19.30;99.90;;;;;;5097808;28;20271;-80
2021/07/13 07:54:10;;;;;;;;;;;19.20;99.90;;;;;;5099524;28;19972;-81
2021/07/13 07:56:36;;;;;;;;;;;19.20;99.90;;;;;;5096510;28;20003;-81
2021/07/13 07:59:04;;;;;;;;;;;19.20;99.90;;;;;;5098711;28;20497;-80
2021/07/13 08:01:29;;;;;;;;;;;19.10;99.90;;;;;;5097820;28;19995;-79
2021/07/13 08:03:54;;;;;;;;;;;19.10;99.90;;;;;;5096597;28;19958;-80
2021/07/13 08:06:20;;;;;;;;;;;19.10;99.90;;;;;;5096649;28;19904;-80
2021/07/13 08:08:46;;;;;;;;;;;19.10;99.90;;;;;;5098200;28;19908;-79
2021/07/13 08:11:11;;;;;;;;;;;19.10;99.90;;;;;;5096550;28;20346;-81
2021/07/13 08:13:37;;;;;;;;;;;19.10;99.90;;;;;;5096729;28;19904;-81
2021/07/13 08:16:02;;;;;;;;;;;19.10;99.90;;;;;;5098221;28;19914;-81
2021/07/13 08:18:28;;;;;;;;;;;19.10;99.90;;;;;;5096362;28;19904;-80
2021/07/13 08:20:53;;;;;;;;;;;19.10;99.90;;;;;;5096532;28;19911;-80
2021/07/13 08:23:18;;;;;;;;;;;19.20;99.90;;;;;;5096032;28;19932;-79
2021/07/13 08:25:44;;;;;;;;;;;19.20;99.90;;;;;;5095338;28;19908;-81
2021/07/13 08:28:09;;;;;;;;;;;19.20;99.90;;;;;;5095392;28;19911;-81
2021/07/13 08:30:35;;;;;;;;;;;19.20;99.90;;;;;;5096837;28;19904;-79
2021/07/13 08:33:00;;;;;;;;;;;19.20;99.90;;;;;;5095591;28;19904;-79
2021/07/13 08:35:26;;;;;;;;;;;19.20;99.90;;;;;;5094823;28;19907;-81
2021/07/13 08:37:51;;;;;;;;;;;19.20;99.90;;;;;;5096564;28;20000;-81
2021/07/13 08:40:17;;;;;;;;;;;19.30;99.90;;;;;;5096691;28;19910;-79
2021/07/13 08:42:44;;;;;;;;;;;19.40;99.90;;;;;;5095451;28;19915;-79
2021/07/13 08:45:17;;;;;;;;;;;19.30;99.90;;;;;;5094423;28;20320;-80
2021/07/13 08:47:44;;;;;;;;;;;19.30;99.90;;;;;;5095127;28;19916;-81
2021/07/13 08:50:10;;;;;;;;;;;19.20;99.90;;;;;;5095314;28;19908;-81
2021/07/13 08:52:35;;;;;;;;;;;19.10;99.90;;;;;;5094910;28;19926;-80
2021/07/13 08:55:02;;;;;;;;;;;19.10;99.90;;;;;;5097074;28;19955;-80
2021/07/13 08:57:28;;;;;;;;;;;19.20;99.90;;;;;;5097451;28;19950;-79
2021/07/13 08:59:53;;;;;;;;;;;19.20;99.90;;;;;;5095341;28;19903;-80
2021/07/13 09:02:19;;;;;;;;;;;19.20;99.90;;;;;;5078026;28;20029;-79
2021/07/13 09:04:45;;;;;;;;;;;19.20;99.90;;;;;;5077716;28;19904;-79
2021/07/13 09:07:10;;;;;;;;;;;19.10;99.90;;;;;;5078732;28;19998;-80
2021/07/13 09:09:39;;;;;;;;;;;19.20;99.90;;;;;;5079639;28;19915;-80
2021/07/13 09:12:09;;;;;;;;;;;19.20;99.90;;;;;;5093771;28;19927;-80
2021/07/13 09:14:53;;;;;;;;;;;19.20;99.90;;;;;;5096270;28;19942;-79
2021/07/13 09:17:38;;;;;;;;;;;19.20;99.90;;;;;;5096195;28;19904;-79
2021/07/13 09:20:09;;;;;;;;;;;19.10;99.90;;;;;;5094187;28;19912;-79
2021/07/13 09:22:35;;;;;;;;;;;19.10;99.90;;;;;;5098055;28;19987;-79
2021/07/13 09:25:20;;;;;;;;;;;19.10;99.90;;;;;;5095039;28;19908;-78
2021/07/13 09:27:45;;;;;;;;;;;19.10;99.90;;;;;;5095138;28;19959;-79
2021/07/13 09:30:14;;;;;;;;;;;19.20;99.90;;;;;;5096890;28;19915;-80
2021/07/13 09:32:39;;;;;;;;;;;19.20;99.90;;;;;;5097455;28;19904;-79
2021/07/13 09:35:07;;;;;;;;;;;19.20;99.90;;;;;;5095732;28;19911;-78
2021/07/13 09:37:34;;;;;;;;;;;19.30;99.90;;;;;;5095465;28;19912;-82
2021/07/13 09:40:19;;;;;;;;;;;19.30;99.90;;;;;;5098152;28;19957;-83
2021/07/13 09:42:52;;;;;;;;;;;19.20;99.90;;;;;;5095157;28;19908;-79
2021/07/13 09:45:17;;;;;;;;;;;19.20;99.90;;;;;;5095171;28;19953;-82
2021/07/13 09:47:43;;;;;;;;;;;19.20;99.90;;;;;;5097306;28;19916;-79
2021/07/13 09:50:09;;;;;;;;;;;19.20;99.90;;;;;;5098653;28;20002;-79
2021/07/13 09:52:35;;;;;;;;;;;19.30;99.90;;;;;;5092944;28;19919;-79
2021/07/13 09:55:12;;;;;;;;;;;19.40;99.90;;;;;;5091422;28;19909;-81
2021/07/13 09:57:38;;;;;;;;;;;19.40;99.90;;;;;;5090186;28;19908;-81
2021/07/13 10:00:04;;;;;;;;;;;19.40;99.90;;;;;;5086604;28;19920;-81
2021/07/13 10:02:30;;;;;;;;;;;19.10;99.90;;;;;;5090106;28;19908;-80
2021/07/13 10:04:56;;;;;;;;;;;18.60;99.90;;;;;;5084864;28;19904;-79
2021/07/13 10:07:22;;;;;;;0.20;0.20;;;18.30;99.90;;;;;;5083312;28;19905;-79
2021/07/13 10:09:52;;;;;;;0.10;0.10;;;18.00;99.90;;;;;;5081379;28;20033;-79
2021/07/13 10:12:23;;;;;;;0.40;0.20;;;17.80;99.90;;;;;;5082993;28;20009;-80
2021/07/13 10:14:54;;;;;;;0.03;0.03;;;17.70;99.90;;;;;;5083143;28;20036;-77
2021/07/13 10:17:23;;;;;;;0.80;0.32;;;17.50;99.90;;;;;;5081195;28;20086;-80
2021/07/13 10:19:51;;;;;;;0.28;0.28;;;17.30;99.90;;;;;;5075896;28;20115;-80
2021/07/13 10:22:19;;;;;;;0.10;0.10;;;17.30;99.90;;;;;;5086316;28;20023;-79
2021/07/13 10:24:48;;;;;;;0.35;0.20;;;17.20;99.90;;;;;;5082784;28;20039;-78
2021/07/13 10:27:50;;;;;;;0.80;0.20;;;17.00;99.90;;;;;;5081669;28;20021;-80
2021/07/13 10:30:16;;;;;;;0.20;0.20;;;16.90;99.90;;;;;;5063372;28;20094;-79
2021/07/13 10:32:43;;;;;;;0.15;0.15;;;16.80;99.90;;;;;;5072580;28;20441;-80
2021/07/13 10:35:23;;;;;;;0.47;0.30;;;16.90;99.90;;;;;;5075738;28;20559;-79
2021/07/13 10:37:51;;;;;;;0.28;0.28;;;16.80;99.90;;;;;;5075887;28;20379;-79
2021/07/13 10:40:26;;;;;;;0.25;0.20;;;16.70;99.90;;;;;;5083843;28;20023;-79
2021/07/13 10:42:56;;;;;;;;;;;16.60;99.90;;;;;;5084400;28;19972;-80
2021/07/13 10:45:22;;;;;;;;;;;16.50;99.90;;;;;;5082020;28;19908;-79
2021/07/13 10:47:56;;;;;;;;;;;16.50;99.90;;;;;;5077969;28;19919;-80
2021/07/13 10:50:21;;;;;;;;;;;16.50;99.90;;;;;;5082170;28;19913;-79
2021/07/13 10:53:02;;;;;;;;;;;16.50;99.90;;;;;;5083762;28;19911;-80
2021/07/13 10:55:31;;;;;;;;;;;16.50;99.90;;;;;;5084348;28;19904;-79
2021/07/13 10:58:08;;;;;;;;;;;16.50;99.90;;;;;;5083945;28;20252;-80
2021/07/13 11:00:58;;;;;;;;;;;16.60;99.90;;;;;;5080089;28;20112;-79
2021/07/13 11:03:27;;;;;;;;;;;16.60;99.90;;;;;;5082826;28;20279;-80
2021/07/13 11:05:53;;;;;;;;;;;16.60;99.90;;;;;;5082934;28;19915;-79
2021/07/13 11:08:37;;;;;;;;;;;16.60;99.90;;;;;;5083691;28;20275;-78
2021/07/13 11:11:02;;;;;;;;;;;16.60;99.90;;;;;;5084207;28;20282;-80
2021/07/13 11:13:28;;;;;;;;;;;16.70;99.90;;;;;;5081367;28;19904;-80
2021/07/13 11:15:53;;;;;;;;;;;16.80;99.90;;;;;;5084335;28;19912;-80
2021/07/13 11:18:36;;;;;;;0.60;0.40;;;16.90;99.90;;;;;;5081029;28;19908;-80
2021/07/13 11:21:22;;;;;;;0.73;0.22;;;17.00;99.90;;;;;;5083293;28;20123;-79
2021/07/13 11:24:08;;;;;;;0.63;0.22;;;17.10;99.90;;;;;;5080318;28;20471;-80
2021/07/13 11:26:47;;;;;;;2.83;0.43;;;17.10;99.90;;;;;;5083137;28;20498;-80
2021/07/13 11:29:17;;;;;;;;;;;17.40;99.90;;;;;;5082364;28;20457;-79
2021/07/13 11:31:45;;;;;;;0.13;0.13;;;17.80;99.90;;;;;;5081869;28;20394;-79
2021/07/13 11:34:16;;;;;;;0.10;0.03;;;18.00;99.90;;;;;;5082292;28;20028;-80
2021/07/13 11:36:53;;;;;;;0.77;0.40;;;18.20;99.90;;;;;;5084930;28;20455;-80
2021/07/13 11:39:41;;;;;;;0.43;0.32;;;18.10;99.90;;;;;;5082185;28;20028;-80
2021/07/13 11:42:09;;;;;;;0.52;0.28;;;17.90;99.90;;;;;;5083313;28;20046;-79
2021/07/13 11:44:40;;;;;;;0.35;0.10;;;17.80;99.90;;;;;;5075960;28;20032;-79
2021/07/13 11:47:11;;;;;;;0.40;0.20;;;17.80;99.90;;;;;;5080873;28;20028;-79
2021/07/13 11:49:38;;;;;;;0.50;0.30;;;17.80;99.90;;;;;;5082544;28;20042;-80
2021/07/13 11:52:14;;;;;;;0.20;0.20;;;17.90;99.90;;;;;;5081113;28;20433;-80
2021/07/13 11:54:46;;;;;;;1.10;0.30;;;17.90;99.90;;;;;;5085602;28;20016;-80
2021/07/13 11:57:18;;;;;;;0.20;0.20;;;17.80;99.90;;;;;;5080917;28;20056;-80
2021/07/13 11:59:44;;;;;;;0.10;0.10;;;17.80;99.90;;;;;;5081158;28;20039;-80
2021/07/13 12:02:09;;;;;;;1.17;0.28;;;18.00;99.90;;;;;;5072906;28;20020;-81
2021/07/13 12:04:38;;;;;;;0.20;0.10;;;18.00;99.90;;;;;;5072749;28;20035;-80
2021/07/13 12:07:04;;;;;;;0.10;0.10;;;18.00;99.90;;;;;;5078252;28;20028;-81
2021/07/13 12:09:32;;;;;;;0.25;0.15;;;18.00;99.90;;;;;;5082129;28;20020;-79
2021/07/13 12:12:04;;;;;;;0.52;0.20;;;17.70;99.90;;;;;;5085827;28;20031;-80
2021/07/13 12:14:30;;;;;;;0.88;0.10;;;17.60;99.90;;;;;;5091884;28;20020;-79
2021/07/13 12:16:57;;;;;;;0.40;0.40;;;17.70;99.90;;;;;;5092502;28;20471;-80
2021/07/13 12:19:29;;;;;;;0.20;0.20;;;17.60;99.90;;;;;;5091854;28;20027;-80
2021/07/13 12:21:58;;;;;;;3.75;0.60;;;17.60;99.90;;;;;;5091270;28;20031;-79
2021/07/13 12:24:30;;;;;;;1.13;0.68;;;17.50;99.90;;;;;;5091543;28;20391;-78
2021/07/13 12:26:57;;;;;;;0.60;0.60;;;17.50;99.90;;;;;;5091586;28;20024;-80
2021/07/13 12:29:32;;;;;;;0.43;0.30;;;17.50;99.90;;;;;;5091305;28;20028;-79
2021/07/13 12:32:02;;;;;;;0.60;0.50;;;17.40;99.90;;;;;;5091069;28;20020;-79
2021/07/13 12:34:38;;;;;;;0.20;0.20;;;17.30;99.90;;;;;;5090949;28;20016;-80
2021/07/13 12:37:05;;;;;;;0.70;0.60;;;17.20;99.90;;;;;;5091422;28;20471;-80
2021/07/13 12:39:31;;;;;;;1.75;0.30;;;17.20;99.90;;;;;;5091192;28;20039;-80
2021/07/13 12:42:08;;;;;;;0.25;0.25;;;17.20;99.90;;;;;;5076500;28;20033;-79
2021/07/13 12:44:45;;;;;;;0.35;0.20;;;17.20;99.90;;;;;;5081767;28;20036;-80
2021/07/13 12:47:14;;;;;;;0.25;0.20;;;17.10;99.90;;;;;;5098510;28;20560;-80
2021/07/13 12:49:39;;;;;;;0.20;0.20;;;17.10;99.90;;;;;;5070560;28;20028;-80
2021/07/13 12:52:11;;;;;;;0.35;0.20;;;17.00;99.90;;;;;;5073488;28;22430;-80
2021/07/13 12:54:57;;;;;;;0.40;0.20;;;17.00;99.90;;;;;;5073810;28;20031;-81
2021/07/13 12:57:30;;;;;;;0.98;0.30;;;17.10;99.90;;;;;;5092078;28;20020;-79
2021/07/13 13:00:10;;;;;;;0.30;0.30;;;17.10;99.90;;;;;;5092108;28;20364;-78
2021/07/13 13:02:36;;;;;;;0.88;0.20;;;17.20;99.90;;;;;;5105646;28;20031;-80
2021/07/13 13:05:04;;;;;;;2.17;0.20;;;17.40;99.90;;;;;;5096438;28;20020;-79
2021/07/13 13:07:29;;;;;;;0.25;0.22;;;17.40;99.90;;;;;;5115342;28;20012;-79
2021/07/13 13:09:55;;;;;;;0.22;0.22;;;17.40;99.90;;;;;;5114619;27;20034;-80
2021/07/13 13:12:21;;;;;;;0.93;0.40;;;17.40;99.90;;;;;;5116259;27;20027;-80
2021/07/13 13:14:49;;;;;;;0.32;0.32;;;17.40;99.90;;;;;;5132901;27;20080;-80
2021/07/13 13:17:16;;;;;;;0.75;0.30;;;17.40;99.90;;;;;;5115910;27;20439;-80
2021/07/13 13:19:45;;;;;;;0.52;0.43;;;17.40;99.90;;;;;;5114696;27;20030;-80
2021/07/13 13:22:11;;;;;;;0.40;0.40;;;17.40;99.90;;;;;;5115967;27;20019;-85
2021/07/13 13:24:36;;;;;;;0.52;0.25;;;17.50;99.90;;;;;;5136871;27;20031;-81
2021/07/13 13:27:05;;;;;;;0.30;0.30;;;17.60;99.90;;;;;;5119838;28;20179;-80
2021/07/13 13:29:31;;;;;;;0.47;0.43;;;17.60;99.90;;;;;;5119896;28;20027;-80
2021/07/13 13:31:57;;;;;;;1.65;0.50;;;17.60;99.90;;;;;;5119420;28;20023;-80
2021/07/13 13:34:24;;;;;;;0.70;0.63;;;17.70;99.90;;;;;;5120409;28;20058;-80
2021/07/13 13:36:53;;;;;;;0.88;0.60;;;17.70;99.90;;;;;;5137326;28;20016;-80
2021/07/13 13:39:19;;;;;;;0.75;0.70;;;17.80;99.90;;;;;;5103574;28;20027;-82
2021/07/13 13:41:45;;;;;;;0.90;0.85;;;17.80;99.90;;;;;;5098856;28;20087;-83
2021/07/13 13:44:11;;;;;;;0.82;0.60;;;17.90;99.90;;;;;;5097994;28;20497;-80
2021/07/13 13:46:37;;;;;;;0.65;0.50;;;18.00;99.90;;;;;;5096650;28;20050;-81
2021/07/13 13:49:03;;;;;;;1.33;0.97;;;18.20;99.90;;;;;;5097573;28;20034;-81
2021/07/13 13:51:29;;;;;;;0.80;0.70;;;18.50;99.90;;;;;;5097904;28;20015;-80
2021/07/13 13:53:55;;;;;;;0.95;0.75;;;18.50;99.90;;;;;;5096539;28;20118;-80